sensor_id;sensor_type;location;lat;lon;timestamp;temperature;humidity
14775;DHT22;7479;47.042;15.160;2022-12-29T10:23:40;3.80;99.90
14775;DHT22;7479;47.042;15.160;2022-12-29T10:28:40;4.20;99.90
14775;DHT22;7479;47.042;15.160;2022-12-29T10:33:39;4.70;99.90
14775;DHT22;7479;47.042;15.160;2022-12-29T10:38:40;5.20;99.90
14775;DHT22;7479;47.042;15.160;2022-12-29T10:43:42;6.00;99.90
14775;DHT22;7479;47.042;15.160;2022-12-29T10:48:37;6.70;99.90
14775;DHT22;7479;47.042;15.160;2022-12-29T10:53:35;7.40;99.90
14775;DHT22;7479;47.042;15.160;2022-12-29T10:58:33;7.90;99.90
14775;DHT22;7479;47.042;15.160;2022-12-29T11:03:48;8.40;99.90
14775;DHT22;7479;47.042;15.160;2022-12-29T11:08:50;8.80;99.90
14775;DHT22;7479;47.042;15.160;2022-12-29T11:13:49;9.20;99.90
14775;DHT22;7479;47.042;15.160;2022-12-29T11:18:46;9.60;99.90
14775;DHT22;7479;47.042;15.160;2022-12-29T11:23:40;9.90;99.90
14775;DHT22;7479;47.042;15.160;2022-12-29T11:28:35;10.10;99.90
14775;DHT22;7479;47.042;15.160;2022-12-29T11:33:32;10.30;99.90
14775;DHT22;7479;47.042;15.160;2022-12-29T11:38:32;10.60;99.90
14775;DHT22;7479;47.042;15.160;2022-12-29T11:43:33;11.20;99.90
14775;DHT22;7479;47.042;15.160;2022-12-29T11:48:31;11.70;99.90
14775;DHT22;7479;47.042;15.160;2022-12-29T11:53:30;12.20;98.80
14775;DHT22;7479;47.042;15.160;2022-12-29T11:58:29;12.80;97.20
14775;DHT22;7479;47.042;15.160;2022-12-29T12:03:26;13.20;96.30
14775;DHT22;7479;47.042;15.160;2022-12-29T12:08:31;13.50;95.00
14775;DHT22;7479;47.042;15.160;2022-12-29T12:13:30;13.60;92.20
14775;DHT22;7479;47.042;15.160;2022-12-29T12:18:40;14.10;90.00
14775;DHT22;7479;47.042;15.160;2022-12-29T12:23:55;14.50;91.30
14775;DHT22;7479;47.042;15.160;2022-12-29T12:28:53;14.80;90.70
14775;DHT22;7479;47.042;15.160;2022-12-29T12:33:53;15.10;88.60
14775;DHT22;7479;47.042;15.160;2022-12-29T12:38:54;15.20;88.50
14775;DHT22;7479;47.042;15.160;2022-12-29T12:43:50;15.40;85.70
14775;DHT22;7479;47.042;15.160;2022-12-29T12:48:55;15.60;79.20
14775;DHT22;7479;47.042;15.160;2022-12-29T12:54:05;16.00;76.10
14775;DHT22;7479;47.042;15.160;2022-12-29T12:59:07;15.70;72.10
14775;DHT22;7479;47.042;15.160;2022-12-29T13:09:45;15.30;73.20
14775;DHT22;7479;47.042;15.160;2022-12-29T13:14:54;15.40;72.50
14775;DHT22;7479;47.042;15.160;2022-12-29T13:19:58;15.00;73.40
14775;DHT22;7479;47.042;15.160;2022-12-29T13:25:10;15.30;72.10
14775;DHT22;7479;47.042;15.160;2022-12-29T13:30:10;15.30;73.60
14775;DHT22;7479;47.042;15.160;2022-12-29T13:35:16;15.40;77.60
14775;DHT22;7479;47.042;15.160;2022-12-29T13:40:16;14.90;78.20
14775;DHT22;7479;47.042;15.160;2022-12-29T13:45:14;14.00;80.10
14775;DHT22;7479;47.042;15.160;2022-12-29T13:50:14;12.80;83.60
14775;DHT22;7479;47.042;15.160;2022-12-29T13:55:25;12.60;85.50
14775;DHT22;7479;47.042;15.160;2022-12-29T14:00:21;11.80;89.10
14775;DHT22;7479;47.042;15.160;2022-12-29T14:05:28;10.90;90.80
14775;DHT22;7479;47.042;15.160;2022-12-29T14:10:29;10.50;92.30
14775;DHT22;7479;47.042;15.160;2022-12-29T14:15:25;10.10;93.10
14775;DHT22;7479;47.042;15.160;2022-12-29T14:20:21;9.80;94.30
14775;DHT22;7479;47.042;15.160;2022-12-29T14:30:53;9.30;95.50
14775;DHT22;7479;47.042;15.160;2022-12-29T14:35:49;9.10;96.00
14775;DHT22;7479;47.042;15.160;2022-12-29T14:40:44;9.00;96.30
14775;DHT22;7479;47.042;15.160;2022-12-29T14:45:41;8.80;96.80
14775;DHT22;7479;47.042;15.160;2022-12-29T14:50:40;8.40;97.50
14775;DHT22;7479;47.042;15.160;2022-12-29T14:55:39;8.10;98.40
14775;DHT22;7479;47.042;15.160;2022-12-29T15:00:35;7.80;99.10
14775;DHT22;7479;47.042;15.160;2022-12-29T15:05:34;7.60;99.90
14775;DHT22;7479;47.042;15.160;2022-12-29T15:10:37;7.40;99.90
14775;DHT22;7479;47.042;15.160;2022-12-29T15:15:37;7.20;99.90
14775;DHT22;7479;47.042;15.160;2022-12-29T15:20:31;6.90;99.90
14775;DHT22;7479;47.042;15.160;2022-12-29T15:25:26;6.60;99.90
14775;DHT22;7479;47.042;15.160;2022-12-29T15:30:22;6.40;99.90
14775;DHT22;7479;47.042;15.160;2022-12-29T15:35:26;6.20;99.90
14775;DHT22;7479;47.042;15.160;2022-12-29T15:40:25;5.90;99.90
14775;DHT22;7479;47.042;15.160;2022-12-29T15:45:29;5.70;99.90
14775;DHT22;7479;47.042;15.160;2022-12-29T15:50:28;5.60;99.90
14775;DHT22;7479;47.042;15.160;2022-12-29T15:55:27;5.40;99.90
14775;DHT22;7479;47.042;15.160;2022-12-29T16:00:23;5.50;99.90
14775;DHT22;7479;47.042;15.160;2022-12-29T16:05:20;5.70;99.90
